Decoded Metar for DTNH ( in ) (IATA:) | Meteo·Mobile Aviation Weather
aviador You're here:

DTNH Decoded Metar

in
Report Time2019-01-17 01:00:00
UTC Time2019-01-17 01:09:36
Flight Rules vfr VFR
WindVRB at 01 kt
Visibility9999 m
Phenomena:N/A
Clouds:N/A
Expected CloudBase > 800 ft AGL from Temp-Dew spread
CeilingNone
Temp06°C
Dew Point04°C (87% RH)
AAT4.3°C
QNH1021 hPa
Raw Report
METAR DTNH 170100Z VRB01KT CAVOK 06/04 Q1021=

Extra information for DTNH:More info

Social comments